createdAt,value
2023-01-01T00:00:45.147Z,15.34
2023-01-01T00:03:13.911Z,15.34
2023-01-01T00:05:41.856Z,15.35
2023-01-01T00:08:09.246Z,15.31
2023-01-01T00:10:36.601Z,15.37
2023-01-01T00:13:03.930Z,15.35
2023-01-01T00:15:31.325Z,15.33
2023-01-01T00:17:58.735Z,15.39
2023-01-01T00:20:33.173Z,15.39
2023-01-01T00:23:03.011Z,15.32
2023-01-01T00:25:32.293Z,15.40
2023-01-01T00:27:59.661Z,15.42
2023-01-01T00:30:27.086Z,15.45
2023-01-01T00:32:56.032Z,15.40
2023-01-01T00:35:24.552Z,15.47
2023-01-01T00:37:53.738Z,15.44
2023-01-01T00:40:21.149Z,15.49
2023-01-01T00:42:48.508Z,15.45
2023-01-01T00:45:21.490Z,15.53
2023-01-01T00:47:50.164Z,15.49
2023-01-01T00:50:17.826Z,15.53
2023-01-01T00:52:45.225Z,15.51
2023-01-01T00:55:13.907Z,15.50
2023-01-01T00:57:41.266Z,15.53
2023-01-01T01:00:10.087Z,15.47
2023-01-01T01:02:37.651Z,15.50
2023-01-01T01:05:05.882Z,15.58
2023-01-01T01:07:35.015Z,15.54
2023-01-01T01:10:02.359Z,15.53
2023-01-01T01:12:31.071Z,15.58
2023-01-01T01:14:58.439Z,15.59
2023-01-01T01:17:25.811Z,15.58
2023-01-01T01:19:53.169Z,15.58
2023-01-01T01:22:25.966Z,15.59
2023-01-01T01:24:55.681Z,15.57
2023-01-01T01:27:23.133Z,15.62
2023-01-01T01:29:51.798Z,15.57
2023-01-01T01:32:19.136Z,15.57
2023-01-01T01:34:46.466Z,15.56
2023-01-01T01:37:14.136Z,15.60
2023-01-01T01:39:41.530Z,15.64
2023-01-01T01:42:09.008Z,15.60
2023-01-01T01:44:53.973Z,15.64
2023-01-01T01:47:25.405Z,15.61
2023-01-01T01:49:54.983Z,15.66
2023-01-01T01:52:22.599Z,15.63
2023-01-01T01:54:50.126Z,15.68
2023-01-01T01:57:17.784Z,15.67
2023-01-01T01:59:49.101Z,15.68
2023-01-01T02:02:24.074Z,15.67
2023-01-01T02:04:51.636Z,15.67
2023-01-01T02:07:19.675Z,15.70
2023-01-01T02:09:47.072Z,15.75
2023-01-01T02:12:14.446Z,15.76
2023-01-01T02:14:41.874Z,15.69
2023-01-01T02:17:11.046Z,15.72
2023-01-01T02:19:45.817Z,15.68
2023-01-01T02:22:16.509Z,15.75
2023-01-01T02:24:50.781Z,15.75
2023-01-01T02:27:23.729Z,15.75
2023-01-01T02:29:54.702Z,15.73
2023-01-01T02:32:24.361Z,15.76
2023-01-01T02:34:54.252Z,15.70
2023-01-01T02:37:22.977Z,15.74
2023-01-01T02:39:53.865Z,15.81
2023-01-01T02:42:21.906Z,15.81
2023-01-01T02:44:54.033Z,15.80
2023-01-01T02:47:22.139Z,15.78
2023-01-01T02:49:56.011Z,15.81
2023-01-01T02:52:49.645Z,15.79
2023-01-01T02:55:25.111Z,15.81
2023-01-01T02:57:56.448Z,15.80
2023-01-01T03:00:27.816Z,15.78
2023-01-01T03:03:10.141Z,15.76
2023-01-01T03:06:02.982Z,15.79
2023-01-01T03:08:33.416Z,15.76
2023-01-01T03:11:04.898Z,15.70
2023-01-01T03:13:37.884Z,15.78
2023-01-01T03:16:11.945Z,15.71
2023-01-01T03:18:43.471Z,15.78
2023-01-01T03:23:49.670Z,15.74
2023-01-01T03:26:18.815Z,15.74
2023-01-01T03:28:49.463Z,15.72
2023-01-01T03:31:21.453Z,15.75
2023-01-01T03:33:50.987Z,15.73
2023-01-01T03:36:20.846Z,15.65
2023-01-01T03:38:50.453Z,15.67
2023-01-01T03:41:23.455Z,15.59
2023-01-01T03:43:53.326Z,15.71
2023-01-01T03:46:25.334Z,15.63
2023-01-01T03:49:03.887Z,15.61
2023-01-01T03:51:39.985Z,15.62
2023-01-01T03:54:10.141Z,15.57
2023-01-01T03:56:42.053Z,15.59
2023-01-01T03:59:14.261Z,15.57
2023-01-01T04:01:45.707Z,15.59
2023-01-01T04:04:13.672Z,15.63
2023-01-01T04:06:40.997Z,15.60
2023-01-01T04:09:12.420Z,15.60
2023-01-01T04:11:59.257Z,15.64
2023-01-01T04:14:30.162Z,15.58
2023-01-01T04:16:59.153Z,15.63
2023-01-01T04:19:26.761Z,15.63
2023-01-01T04:21:54.109Z,15.61
2023-01-01T04:24:21.499Z,15.64
2023-01-01T04:26:49.430Z,15.61
2023-01-01T04:29:17.035Z,15.66
2023-01-01T04:31:44.543Z,15.59
2023-01-01T04:34:13.357Z,15.68
2023-01-01T04:36:41.037Z,15.65
2023-01-01T04:39:08.405Z,15.61
2023-01-01T04:41:35.973Z,15.63
2023-01-01T04:44:03.751Z,15.58
2023-01-01T04:46:31.101Z,15.49
2023-01-01T04:48:58.616Z,15.64
2023-01-01T04:51:27.291Z,15.60
2023-01-01T04:53:54.639Z,15.63
2023-01-01T04:56:22.914Z,15.61
2023-01-01T04:58:50.721Z,15.60
2023-01-01T05:01:20.168Z,15.63
2023-01-01T05:03:48.368Z,15.67
2023-01-01T05:06:16.094Z,15.62
2023-01-01T05:08:45.949Z,15.56
2023-01-01T05:11:14.643Z,15.64
2023-01-01T05:13:43.738Z,15.60
2023-01-01T05:16:12.491Z,15.66
2023-01-01T05:18:40.747Z,15.66
2023-01-01T05:21:09.878Z,15.68
2023-01-01T05:23:37.265Z,15.71
2023-01-01T05:26:11.110Z,15.68
2023-01-01T05:28:38.871Z,15.69
2023-01-01T05:31:07.302Z,15.69
2023-01-01T05:33:35.226Z,15.67
2023-01-01T05:36:02.930Z,15.59
2023-01-01T05:38:30.542Z,15.51
2023-01-01T05:40:58.250Z,15.57
2023-01-01T05:43:26.950Z,15.51
2023-01-01T05:46:03.575Z,15.58
2023-01-01T05:48:30.954Z,15.50
2023-01-01T05:51:03.414Z,15.53
2023-01-01T05:53:31.584Z,15.51
2023-01-01T05:55:59.643Z,15.61
2023-01-01T05:58:29.899Z,15.55
2023-01-01T06:00:57.421Z,15.58
2023-01-01T06:03:24.795Z,15.56
2023-01-01T06:05:52.175Z,15.55
2023-01-01T06:08:19.794Z,15.53
2023-01-01T06:10:47.180Z,15.52
2023-01-01T06:13:14.589Z,15.46
2023-01-01T06:15:43.255Z,15.45
2023-01-01T06:18:10.645Z,15.39
2023-01-01T06:20:38.136Z,15.41
2023-01-01T06:23:05.590Z,15.48
2023-01-01T06:25:32.958Z,15.44
2023-01-01T06:28:00.320Z,15.51
2023-01-01T06:30:27.819Z,15.45
2023-01-01T06:32:56.560Z,15.47
2023-01-01T06:35:23.911Z,15.43
2023-01-01T06:37:51.269Z,15.47
2023-01-01T06:40:22.978Z,15.48
2023-01-01T06:42:50.575Z,15.50
2023-01-01T06:45:18.170Z,15.48
2023-01-01T06:47:45.558Z,15.50
2023-01-01T06:50:14.202Z,15.56
2023-01-01T06:52:41.556Z,15.45
2023-01-01T06:55:09.792Z,15.51
2023-01-01T06:57:37.166Z,15.48
2023-01-01T07:00:05.325Z,15.49
2023-01-01T07:02:32.867Z,15.43
2023-01-01T07:05:00.493Z,15.39
2023-01-01T07:07:34.125Z,15.41
2023-01-01T07:10:03.288Z,15.39
2023-01-01T07:12:33.149Z,15.36
2023-01-01T07:15:00.494Z,15.40
2023-01-01T07:17:27.830Z,15.36
2023-01-01T07:19:55.181Z,15.43
2023-01-01T07:22:22.539Z,15.40
2023-01-01T07:24:51.217Z,15.52
2023-01-01T07:27:18.558Z,15.36
2023-01-01T07:29:45.908Z,15.32
2023-01-01T07:32:14.106Z,15.41
2023-01-01T07:34:43.864Z,15.36
2023-01-01T07:37:14.796Z,15.37
2023-01-01T07:39:42.140Z,15.34
2023-01-01T07:42:11.160Z,15.39
2023-01-01T07:44:38.549Z,15.36
2023-01-01T07:47:06.512Z,15.38
2023-01-01T07:49:33.880Z,15.40
2023-01-01T07:52:04.253Z,15.46
2023-01-01T07:54:31.594Z,15.30
2023-01-01T07:56:58.946Z,15.34
2023-01-01T07:59:27.602Z,15.34
2023-01-01T08:01:55.150Z,15.34
2023-01-01T08:04:22.654Z,15.41
2023-01-01T08:06:50.345Z,15.38
2023-01-01T08:09:18.986Z,15.34
2023-01-01T08:11:46.471Z,15.27
2023-01-01T08:14:14.156Z,15.41
2023-01-01T08:16:42.889Z,15.43
2023-01-01T08:19:10.718Z,15.32
2023-01-01T08:21:38.178Z,15.33
2023-01-01T08:24:06.319Z,15.36
2023-01-01T08:26:35.098Z,15.39
2023-01-01T08:29:03.490Z,15.33
2023-01-01T08:31:31.129Z,15.39
2023-01-01T08:33:59.845Z,15.36
2023-01-01T08:36:27.317Z,15.37
2023-01-01T08:38:54.712Z,15.38
2023-01-01T08:41:22.125Z,15.40
2023-01-01T08:43:49.465Z,15.34
2023-01-01T08:46:17.358Z,15.36
2023-01-01T08:48:44.728Z,15.41
2023-01-01T08:51:13.443Z,15.48
2023-01-01T08:53:44.175Z,15.37
2023-01-01T08:56:16.173Z,15.42
2023-01-01T08:58:43.799Z,15.36
2023-01-01T09:01:11.495Z,15.36
2023-01-01T09:03:39.523Z,15.45
2023-01-01T09:06:07.319Z,15.40
2023-01-01T09:08:36.028Z,15.43
2023-01-01T09:11:04.253Z,15.42
2023-01-01T09:13:34.100Z,15.36
2023-01-01T09:16:01.592Z,15.30
2023-01-01T09:18:29.022Z,15.37
2023-01-01T09:20:56.384Z,15.37
2023-01-01T09:23:23.809Z,15.37
2023-01-01T09:25:52.588Z,15.43
2023-01-01T09:28:25.353Z,15.36
2023-01-01T09:30:53.334Z,15.37
2023-01-01T09:33:20.658Z,15.35
2023-01-01T09:35:48.103Z,15.44
2023-01-01T09:38:15.488Z,15.32
2023-01-01T09:40:54.120Z,15.39
2023-01-01T09:43:30.891Z,15.41
2023-01-01T09:46:00.545Z,15.36
2023-01-01T09:48:30.567Z,15.41
2023-01-01T09:50:59.285Z,15.45
2023-01-01T09:53:32.130Z,15.44
2023-01-01T09:56:02.160Z,15.47
2023-01-01T09:58:33.600Z,15.51
2023-01-01T10:01:07.076Z,15.44
2023-01-01T10:03:41.595Z,15.48
2023-01-01T10:06:20.443Z,15.40
2023-01-01T10:08:56.502Z,15.37
2023-01-01T10:11:28.477Z,15.36
2023-01-01T10:13:59.070Z,15.38
2023-01-01T10:16:32.902Z,15.35
2023-01-01T10:19:14.232Z,15.39
2023-01-01T10:21:47.243Z,15.38
2023-01-01T10:24:28.907Z,15.39
2023-01-01T10:26:58.578Z,15.39
2023-01-01T10:29:36.394Z,15.44
2023-01-01T10:32:07.389Z,15.29
2023-01-01T10:34:34.834Z,15.36
2023-01-01T10:37:03.523Z,15.38
2023-01-01T10:39:31.023Z,15.30
2023-01-01T10:42:00.890Z,15.27
2023-01-01T10:44:31.066Z,15.36
2023-01-01T10:47:00.536Z,15.23
2023-01-01T10:49:27.963Z,15.30
2023-01-01T10:51:55.667Z,15.21
2023-01-01T10:54:33.169Z,15.21
2023-01-01T10:57:14.484Z,15.20
2023-01-01T10:59:46.845Z,15.24
2023-01-01T11:02:21.829Z,15.26
2023-01-01T11:04:49.871Z,15.15
2023-01-01T11:07:27.716Z,15.30
2023-01-01T11:10:03.512Z,15.22
2023-01-01T11:13:04.347Z,15.23
2023-01-01T11:15:25.264Z,15.24
2023-01-01T11:17:52.686Z,15.28
2023-01-01T11:20:24.448Z,15.11
2023-01-01T11:22:52.734Z,15.27
2023-01-01T11:25:22.495Z,15.25
2023-01-01T11:27:51.546Z,15.10
2023-01-01T11:30:22.725Z,15.10
2023-01-01T11:32:55.413Z,15.13
2023-01-01T11:35:24.957Z,15.16
2023-01-01T11:37:53.626Z,15.17
2023-01-01T11:40:22.998Z,15.16
2023-01-01T11:42:58.353Z,15.17
2023-01-01T11:45:31.682Z,15.18
2023-01-01T11:48:03.320Z,15.11
2023-01-01T11:50:32.595Z,15.05
2023-01-01T11:53:18.930Z,15.07
2023-01-01T11:55:48.652Z,15.12
2023-01-01T11:58:22.661Z,15.04
2023-01-01T12:00:52.672Z,15.15
2023-01-01T12:03:31.311Z,15.09
2023-01-01T12:06:04.094Z,14.98
2023-01-01T12:08:34.943Z,15.03
2023-01-01T12:11:08.762Z,15.04
2023-01-01T12:13:46.267Z,14.93
2023-01-01T12:16:15.502Z,14.94
2023-01-01T12:18:47.302Z,14.93
2023-01-01T12:21:19.625Z,15.03
2023-01-01T12:23:47.282Z,14.89
2023-01-01T12:26:19.288Z,14.92
2023-01-01T12:29:03.982Z,15.07
2023-01-01T12:31:38.211Z,15.04
2023-01-01T12:34:09.642Z,14.98
2023-01-01T12:36:44.151Z,14.96
2023-01-01T12:40:06.157Z,14.76
2023-01-01T12:42:46.799Z,14.93
2023-01-01T12:45:31.282Z,14.81
2023-01-01T12:48:03.119Z,14.83
2023-01-01T12:50:38.121Z,14.80
2023-01-01T12:53:14.738Z,14.78
2023-01-01T12:56:08.270Z,14.78
2023-01-01T12:58:37.809Z,14.76
2023-01-01T13:01:09.987Z,14.74
2023-01-01T13:03:40.075Z,14.87
2023-01-01T13:06:08.743Z,14.91
2023-01-01T13:08:36.467Z,14.88
2023-01-01T13:11:04.720Z,14.89
2023-01-01T13:13:32.160Z,14.78
2023-01-01T13:15:59.691Z,14.82
2023-01-01T13:18:30.717Z,14.87
2023-01-01T13:21:01.916Z,14.82
2023-01-01T13:23:46.427Z,14.77
2023-01-01T13:26:33.061Z,14.76
2023-01-01T13:29:35.186Z,14.78
2023-01-01T13:32:05.077Z,14.77
2023-01-01T13:34:37.131Z,14.80
2023-01-01T13:37:26.868Z,14.70
2023-01-01T13:39:56.256Z,14.83
2023-01-01T13:42:43.930Z,14.74
2023-01-01T13:45:30.372Z,14.68
2023-01-01T13:48:18.966Z,14.77
2023-01-01T13:50:55.814Z,14.75
2023-01-01T13:53:46.437Z,14.82
2023-01-01T13:56:29.561Z,14.75
2023-01-01T13:59:07.692Z,14.70
2023-01-01T14:01:43.133Z,14.61
2023-01-01T14:04:18.505Z,14.69
2023-01-01T14:06:51.021Z,14.75
2023-01-01T14:09:20.736Z,14.62
2023-01-01T14:11:48.081Z,14.74
2023-01-01T14:14:27.513Z,14.67
2023-01-01T14:16:56.839Z,14.88
2023-01-01T14:19:24.986Z,14.88
2023-01-01T14:21:54.285Z,14.71
2023-01-01T14:24:23.029Z,14.81
2023-01-01T14:26:50.718Z,14.73
2023-01-01T14:29:27.300Z,14.75
2023-01-01T14:31:54.841Z,14.68
2023-01-01T14:34:24.959Z,14.81
2023-01-01T14:36:54.920Z,14.78
2023-01-01T14:39:28.093Z,14.68
2023-01-01T14:41:56.734Z,14.66
2023-01-01T14:44:26.910Z,14.81
2023-01-01T14:46:54.750Z,14.59
2023-01-01T14:49:25.779Z,14.71
2023-01-01T14:51:57.941Z,14.62
2023-01-01T14:54:30.799Z,14.65
2023-01-01T14:56:58.237Z,14.61
2023-01-01T14:59:28.501Z,14.69
2023-01-01T15:02:02.762Z,14.53
2023-01-01T15:04:31.204Z,14.54
2023-01-01T15:07:01.473Z,14.60
2023-01-01T15:09:29.942Z,14.63
2023-01-01T15:11:58.802Z,14.80
2023-01-01T15:14:31.383Z,14.51
2023-01-01T15:17:03.637Z,14.52
2023-01-01T15:19:31.222Z,14.43
2023-01-01T15:22:00.444Z,14.57
2023-01-01T15:24:30.177Z,14.66
2023-01-01T15:26:59.043Z,14.58
2023-01-01T15:29:31.740Z,14.51
2023-01-01T15:32:00.888Z,14.79
2023-01-01T15:34:31.149Z,14.62
2023-01-01T15:37:08.246Z,14.82
2023-01-01T15:39:46.019Z,14.32
2023-01-01T15:42:23.358Z,14.46
2023-01-01T15:44:50.714Z,14.33
2023-01-01T15:47:20.607Z,14.51
2023-01-01T15:49:47.964Z,14.61
2023-01-01T15:52:22.940Z,14.59
2023-01-01T15:54:50.501Z,14.37
2023-01-01T15:57:20.607Z,14.50
2023-01-01T15:59:50.475Z,14.48
2023-01-01T16:02:21.731Z,14.53
2023-01-01T16:04:50.781Z,14.35
2023-01-01T16:07:23.193Z,14.26
2023-01-01T16:09:57.086Z,14.46
2023-01-01T16:12:25.291Z,14.36
2023-01-01T16:14:52.691Z,14.45
2023-01-01T16:17:21.219Z,14.37
2023-01-01T16:19:48.825Z,14.38
2023-01-01T16:22:17.727Z,14.45
2023-01-01T16:24:46.645Z,14.35
2023-01-01T16:27:14.114Z,14.25
2023-01-01T16:29:43.537Z,14.51
2023-01-01T16:32:16.677Z,14.39
2023-01-01T16:34:44.041Z,14.42
2023-01-01T16:37:11.398Z,14.17
2023-01-01T16:39:38.838Z,14.11
2023-01-01T16:42:11.363Z,14.04
2023-01-01T16:44:41.755Z,14.12
2023-01-01T16:47:09.156Z,13.98
2023-01-01T16:49:36.537Z,13.97
2023-01-01T16:52:04.378Z,13.95
2023-01-01T16:54:31.765Z,13.83
2023-01-01T16:56:59.167Z,13.84
2023-01-01T16:59:27.921Z,13.89
2023-01-01T17:01:55.438Z,13.86
2023-01-01T17:04:22.918Z,13.92
2023-01-01T17:06:50.283Z,13.88
2023-01-01T17:09:17.767Z,14.02
2023-01-01T17:11:45.939Z,13.90
2023-01-01T17:14:13.568Z,14.04
2023-01-01T17:16:42.302Z,14.12
2023-01-01T17:19:15.578Z,14.21
2023-01-01T17:21:44.671Z,14.16
2023-01-01T17:24:12.099Z,14.14
2023-01-01T17:26:39.551Z,13.94
2023-01-01T17:29:07.902Z,14.09
2023-01-01T17:31:35.714Z,14.21
2023-01-01T17:34:04.880Z,14.05
2023-01-01T17:36:32.317Z,14.16
2023-01-01T17:38:59.659Z,14.03
2023-01-01T17:41:27.025Z,13.83
2023-01-01T17:43:54.394Z,13.72
2023-01-01T17:46:23.347Z,13.99
2023-01-01T17:48:51.212Z,14.02
2023-01-01T17:51:20.106Z,13.96
2023-01-01T17:53:47.728Z,13.71
2023-01-01T17:56:17.347Z,13.81
2023-01-01T17:58:46.097Z,13.81
2023-01-01T18:01:20.867Z,13.81
2023-01-01T18:03:49.186Z,13.94
2023-01-01T18:06:16.564Z,13.84
2023-01-01T18:08:45.264Z,13.65
2023-01-01T18:11:12.612Z,14.01
2023-01-01T18:13:40.114Z,13.87
2023-01-01T18:16:09.489Z,13.80
2023-01-01T18:18:37.727Z,14.02
2023-01-01T18:21:05.810Z,14.00
2023-01-01T18:23:33.683Z,14.19
2023-01-01T18:26:03.320Z,14.14
2023-01-01T18:28:30.859Z,14.19
2023-01-01T18:31:05.252Z,14.17
2023-01-01T18:33:32.696Z,14.14
2023-01-01T18:36:03.669Z,13.94
2023-01-01T18:38:31.075Z,13.98
2023-01-01T18:41:14.157Z,14.01
2023-01-01T18:43:41.531Z,13.78
2023-01-01T18:46:10.168Z,13.54
2023-01-01T18:48:37.916Z,13.58
2023-01-01T18:51:14.769Z,13.47
2023-01-01T18:53:42.315Z,13.43
2023-01-01T18:56:13.892Z,13.53
2023-01-01T18:58:42.538Z,13.66
2023-01-01T19:01:14.655Z,13.56
2023-01-01T19:03:42.403Z,13.63
2023-01-01T19:06:22.075Z,13.40
2023-01-01T19:08:49.886Z,13.43
2023-01-01T19:11:22.732Z,13.46
2023-01-01T19:13:53.823Z,13.42
2023-01-01T19:16:27.372Z,13.46
2023-01-01T19:18:55.598Z,13.45
2023-01-01T19:21:24.242Z,13.47
2023-01-01T19:23:53.112Z,13.43
2023-01-01T19:26:24.941Z,13.32
2023-01-01T19:28:54.208Z,13.29
2023-01-01T19:31:21.693Z,13.26
2023-01-01T19:33:49.161Z,13.41
2023-01-01T19:36:16.662Z,13.38
2023-01-01T19:38:44.586Z,13.38
2023-01-01T19:41:12.142Z,13.48
2023-01-01T19:43:40.908Z,13.50
2023-01-01T19:46:08.260Z,13.53
2023-01-01T19:48:35.786Z,13.47
2023-01-01T19:51:03.244Z,13.23
2023-01-01T19:53:30.646Z,13.53
2023-01-01T19:55:58.108Z,13.57
2023-01-01T19:58:25.461Z,13.59
2023-01-01T20:00:54.296Z,13.48
2023-01-01T20:03:52.912Z,13.47
2023-01-01T20:06:11.294Z,13.41
2023-01-01T20:08:38.996Z,13.24
2023-01-01T20:11:07.069Z,13.16
2023-01-01T20:13:34.478Z,13.25
2023-01-01T20:16:05.266Z,12.93
2023-01-01T20:18:32.853Z,12.93
2023-01-01T20:21:22.070Z,12.87
2023-01-01T20:23:53.159Z,12.91
2023-01-01T20:26:20.752Z,13.09
2023-01-01T20:29:05.578Z,13.01
2023-01-01T20:31:34.321Z,13.10
2023-01-01T20:34:01.743Z,13.28
2023-01-01T20:36:47.130Z,12.94
2023-01-01T20:39:14.503Z,13.09
2023-01-01T20:41:41.966Z,13.13
2023-01-01T20:44:09.523Z,13.23
2023-01-01T20:46:38.737Z,13.25
2023-01-01T20:49:06.335Z,13.24
2023-01-01T20:51:34.057Z,13.25
2023-01-01T20:54:04.435Z,13.17
2023-01-01T20:56:32.468Z,13.14
2023-01-01T20:59:24.342Z,12.92
2023-01-01T21:01:53.617Z,12.96
2023-01-01T21:04:21.103Z,13.18
2023-01-01T21:06:48.617Z,13.03
2023-01-01T21:09:15.977Z,12.99
2023-01-01T21:11:43.752Z,13.09
2023-01-01T21:14:11.300Z,12.98
2023-01-01T21:16:41.612Z,12.93
2023-01-01T21:19:11.171Z,12.81
2023-01-01T21:21:44.868Z,12.95
2023-01-01T21:24:23.362Z,12.78
2023-01-01T21:26:51.711Z,12.61
2023-01-01T21:29:21.233Z,12.64
2023-01-01T21:31:52.025Z,12.71
2023-01-01T21:34:25.537Z,12.84
2023-01-01T21:36:54.270Z,12.78
2023-01-01T21:39:26.115Z,12.98
2023-01-01T21:41:53.486Z,13.09
2023-01-01T21:44:20.816Z,13.03
2023-01-01T21:46:53.276Z,13.04
2023-01-01T21:49:30.874Z,13.15
2023-01-01T21:51:59.618Z,13.05
2023-01-01T21:54:29.543Z,13.15
2023-01-01T21:56:58.604Z,13.29
2023-01-01T21:59:34.563Z,13.16
2023-01-01T22:02:28.894Z,13.32
2023-01-01T22:04:58.419Z,13.23
2023-01-01T22:10:16.845Z,13.23
2023-01-01T22:12:44.353Z,13.22
2023-01-01T22:15:28.498Z,13.26
2023-01-01T22:18:07.027Z,13.29
2023-01-01T22:20:38.360Z,13.45
2023-01-01T22:23:17.361Z,13.47
2023-01-01T22:25:44.753Z,13.49
2023-01-01T22:28:17.476Z,13.36
2023-01-01T22:30:44.939Z,13.32
2023-01-01T22:33:15.266Z,13.28
2023-01-01T22:35:44.041Z,13.16
2023-01-01T22:38:15.154Z,13.29
2023-01-01T22:40:42.513Z,13.34
2023-01-01T22:43:12.621Z,13.35
2023-01-01T22:45:42.416Z,13.32
2023-01-01T22:48:20.213Z,13.23
2023-01-01T22:50:49.189Z,13.31
2023-01-01T22:53:17.438Z,13.35
2023-01-01T22:55:45.861Z,13.28
2023-01-01T22:58:13.435Z,13.27
2023-01-01T23:00:41.725Z,13.16
2023-01-01T23:03:09.115Z,13.23
2023-01-01T23:05:36.686Z,13.28
2023-01-01T23:08:05.973Z,13.33
2023-01-01T23:10:33.336Z,13.31
2023-01-01T23:13:21.549Z,13.21
2023-01-01T23:16:06.311Z,13.09
2023-01-01T23:18:35.572Z,13.22
2023-01-01T23:21:05.193Z,13.21
2023-01-01T23:23:34.104Z,13.14
2023-01-01T23:26:02.157Z,13.18
2023-01-01T23:28:31.489Z,13.14
2023-01-01T23:30:59.835Z,12.86
2023-01-01T23:33:27.540Z,12.86
2023-01-01T23:35:55.070Z,12.81
2023-01-01T23:38:22.745Z,12.79
2023-01-01T23:40:51.431Z,12.88
2023-01-01T23:43:18.821Z,12.80
2023-01-01T23:45:46.745Z,12.70
2023-01-01T23:48:14.892Z,12.84
2023-01-01T23:50:42.344Z,12.94
2023-01-01T23:53:09.734Z,12.95
2023-01-01T23:55:37.230Z,12.88
2023-01-01T23:58:05.876Z,12.73
